GMTN  Saniat Rmel Airport

Add Bookmark

Morocco

Status IATA
Operational TTU
Latitude Longitude
35° 35' 39" N 5° 19' 12" W
35.594299 -5.320020
Local (DST + 1) UTC (GMT 0)
Sep 16, 2014 02:24 Sep 16, 2014 13:24
Sunrise-Sunset Local UTC
Begin Civil Twilight 06:38 05:38
Sunrise 07:03 06:03
Sunset 07:28 18:28
End Civil Twilight 07:53 18:53

Current Weather

METAR Observed VFR
GMTN 161200Z 11007KT 070V170 9999 SCT020 SCT200 29/18 Q1010 NOSIG Tue, Sep 16, 2014 @ 12:00 UTC
(1 Hour, 24 Minutes ago)
Visual Flight Rules
Wind Visibility Clouds Conditions
110° at 7 knots (13 kph) 10 km or more
  • Scattered at 2,000' AGL
  • Scattered at 20,000' AGL
  • No significant weather
Temperatures Readings Precipitation
Current Temp 29°C (84°F)
Dewpoint 18°C (64°F)
Heat Index 29°C (85°F)
Humidity 51%
Altimeter 29.82"Hg
Sea Level Pressure 1010mb
Field Elevation 32.81'
None Recorded

Additional weather within a 92.6km radius of GMTN

Map ICAO Location
GMTT 55.9km W (285°)
LXGB 61.9km N (360°)

24 Hour Weather History

Loading
-

24 Hour Weather Graphs

Loading
-

CheckWX.com is intended as a tool to help pilots better visualize weather data. It is not intended as a substitute for an official weather briefing obtained from a Flight Service Station. CheckWX.com does not meet the FAA requirements for an official pre-flight weather briefing. Therefore, it's important that pilots still call and obtain an official FSS pre-flight weather briefing.